createdAt,value
2023-11-27T00:01:51.130Z,100838.81
2023-11-27T00:05:12.862Z,100834.47
2023-11-27T00:08:34.215Z,100829.38
2023-11-27T00:11:57.409Z,100828.56
2023-11-27T00:15:19.215Z,100828.56
2023-11-27T00:18:40.521Z,100820.84
2023-11-27T00:22:01.797Z,100830.56
2023-11-27T00:25:23.590Z,100830.44
2023-11-27T00:28:46.514Z,100831.31
2023-11-27T00:32:08.717Z,100835.69
2023-11-27T00:35:30.458Z,100826.91
2023-11-27T00:38:51.603Z,100843.59
2023-11-27T00:42:12.797Z,100834.84
2023-11-27T00:45:35.522Z,100840.91
2023-11-27T00:48:57.203Z,100837.50
2023-11-27T00:52:19.370Z,100841.91
2023-11-27T00:55:41.252Z,100839.50
2023-11-27T00:59:02.901Z,100835.97
2023-11-27T01:02:25.874Z,100841.19
2023-11-27T01:05:47.812Z,100833.34
2023-11-27T01:09:09.718Z,100842.09
2023-11-27T01:12:30.996Z,100822.19
2023-11-27T01:15:55.946Z,100829.22
2023-11-27T01:19:19.041Z,100825.06
2023-11-27T01:22:40.846Z,100811.19
2023-11-27T01:26:02.645Z,100813.13
2023-11-27T01:29:23.929Z,100813.34
2023-11-27T01:32:45.680Z,100810.00
2023-11-27T01:36:09.839Z,100812.88
2023-11-27T01:39:31.421Z,100809.59
2023-11-27T01:42:52.809Z,100800.16
2023-11-27T01:46:24.635Z,100799.50
2023-11-27T01:49:46.903Z,100798.78
2023-11-27T01:53:09.628Z,100791.97
2023-11-27T01:56:32.519Z,100787.69
2023-11-27T01:59:57.252Z,100784.38
2023-11-27T02:03:19.205Z,100789.75
2023-11-27T02:06:41.221Z,100799.50
2023-11-27T02:10:04.684Z,100788.47
2023-11-27T02:13:27.504Z,100781.56
2023-11-27T02:16:50.200Z,100781.91
2023-11-27T02:20:13.067Z,100775.13
2023-11-27T02:23:36.240Z,100779.66
2023-11-27T02:26:58.500Z,100776.28
2023-11-27T02:30:21.552Z,100774.78
2023-11-27T02:33:43.177Z,100764.56
2023-11-27T02:37:04.898Z,100776.91
2023-11-27T02:40:27.898Z,100764.19
2023-11-27T02:43:49.638Z,100772.94
2023-11-27T02:47:11.147Z,100766.13
2023-11-27T02:50:33.100Z,100774.88
2023-11-27T02:53:55.063Z,100775.06
2023-11-27T02:57:19.036Z,100775.28
2023-11-27T03:00:40.852Z,100776.22
2023-11-27T03:04:02.319Z,100784.94
2023-11-27T03:07:24.165Z,100779.81
2023-11-27T03:10:45.657Z,100776.53
2023-11-27T03:14:08.688Z,100774.00
2023-11-27T03:17:30.170Z,100773.34
2023-11-27T03:20:51.533Z,100772.63
2023-11-27T03:24:12.821Z,100763.13
2023-11-27T03:27:34.803Z,100760.69
2023-11-27T03:30:57.470Z,100754.06
2023-11-27T03:34:18.787Z,100749.56
2023-11-27T03:37:40.958Z,100752.88
2023-11-27T03:41:05.061Z,100754.78
2023-11-27T03:44:26.661Z,100756.66
2023-11-27T03:47:49.423Z,100755.13
2023-11-27T03:51:11.722Z,100756.13
2023-11-27T03:54:32.976Z,100760.44
2023-11-27T03:57:54.403Z,100754.38
2023-11-27T04:01:16.250Z,100754.56
2023-11-27T04:04:39.936Z,100753.97
2023-11-27T04:08:01.717Z,100755.72
2023-11-27T04:11:23.496Z,100750.50
2023-11-27T04:14:44.877Z,100753.16
2023-11-27T04:18:06.331Z,100754.91
2023-11-27T04:21:29.066Z,100752.41
2023-11-27T04:24:52.422Z,100749.78
2023-11-27T04:28:14.237Z,100749.78
2023-11-27T04:31:36.170Z,100741.88
2023-11-27T04:34:57.774Z,100739.25
2023-11-27T04:38:20.406Z,100724.41
2023-11-27T04:41:43.575Z,100731.31
2023-11-27T04:45:08.048Z,100720.03
2023-11-27T04:48:29.743Z,100724.53
2023-11-27T04:51:51.201Z,100721.03
2023-11-27T04:55:14.388Z,100716.41
2023-11-27T04:58:35.611Z,100720.69
2023-11-27T05:01:57.010Z,100720.66
2023-11-27T05:05:18.879Z,100713.56
2023-11-27T05:08:40.473Z,100710.88
2023-11-27T05:12:03.372Z,100704.75
2023-11-27T05:15:24.586Z,100711.75
2023-11-27T05:18:46.313Z,100710.75
2023-11-27T05:22:08.259Z,100694.19
2023-11-27T05:25:30.306Z,100693.31
2023-11-27T05:28:53.282Z,100693.19
2023-11-27T05:51:40.687Z,100679.72
2023-11-27T05:55:02.189Z,100688.75
2023-11-27T05:58:23.847Z,100690.38
2023-11-27T06:01:45.602Z,100692.00
2023-11-27T06:05:07.861Z,100685.06
2023-11-27T06:08:30.560Z,100689.56
2023-11-27T06:11:52.306Z,100691.19
2023-11-27T06:15:15.305Z,100690.19
2023-11-27T06:18:37.410Z,100693.69
2023-11-27T06:21:59.954Z,100688.38
2023-11-27T06:25:23.006Z,100676.13
2023-11-27T06:28:45.065Z,100664.81
2023-11-27T06:32:07.212Z,100666.47
2023-11-27T06:35:28.728Z,100663.75
2023-11-27T06:38:50.058Z,100663.81
2023-11-27T06:42:13.362Z,100660.31
2023-11-27T06:45:36.152Z,100657.81
2023-11-27T06:48:57.456Z,100658.63
2023-11-27T06:52:19.174Z,100660.31
2023-11-27T06:55:41.048Z,100662.00
2023-11-27T06:59:04.327Z,100661.94
2023-11-27T07:02:27.237Z,100658.44
2023-11-27T07:05:48.661Z,100656.69
2023-11-27T07:09:11.976Z,100663.63
2023-11-27T07:12:33.846Z,100662.81
2023-11-27T07:15:57.079Z,100654.00
2023-11-27T07:19:18.630Z,100652.31
2023-11-27T07:22:43.988Z,100635.81
2023-11-27T07:26:05.608Z,100645.28
2023-11-27T07:29:28.339Z,100640.72
2023-11-27T07:40:35.472Z,100627.22
2023-11-27T07:43:57.362Z,100625.41
2023-11-27T07:47:19.096Z,100609.63
2023-11-27T07:50:41.481Z,100609.66
2023-11-27T07:54:03.599Z,100619.00
2023-11-27T07:57:26.754Z,100617.06
2023-11-27T08:00:48.639Z,100621.31
2023-11-27T08:04:10.355Z,100627.28
2023-11-27T08:07:33.078Z,100631.75
2023-11-27T08:10:54.148Z,100637.84
2023-11-27T08:14:18.281Z,100630.00
2023-11-27T08:17:39.667Z,100628.22
2023-11-27T08:21:02.349Z,100634.31
2023-11-27T08:24:25.849Z,100633.34
2023-11-27T08:27:48.528Z,100627.94
2023-11-27T08:31:11.577Z,100614.69
2023-11-27T08:34:33.214Z,100615.44
2023-11-27T08:37:54.788Z,100609.94
2023-11-27T08:41:16.639Z,100610.50
2023-11-27T08:44:39.072Z,100600.78
2023-11-27T08:48:04.254Z,100597.88
2023-11-27T08:51:26.721Z,100597.59
2023-11-27T08:54:48.307Z,100600.81
2023-11-27T08:58:10.396Z,100603.19
2023-11-27T09:01:32.466Z,100605.50
2023-11-27T09:04:56.262Z,100598.16
2023-11-27T09:08:18.712Z,100601.31
2023-11-27T09:11:40.461Z,100600.97
2023-11-27T09:15:01.796Z,100590.16
2023-11-27T09:18:23.254Z,100584.69
2023-11-27T09:21:46.799Z,100589.59
2023-11-27T09:25:10.870Z,100588.38
2023-11-27T09:28:32.434Z,100584.63
2023-11-27T09:31:54.118Z,100581.78
2023-11-27T09:35:16.902Z,100577.06
2023-11-27T09:38:42.072Z,100578.56
2023-11-27T09:42:04.923Z,100572.84
2023-11-27T09:45:26.418Z,100580.44
2023-11-27T09:48:52.788Z,100562.78
2023-11-27T09:52:21.794Z,100557.00
2023-11-27T09:55:50.466Z,100565.34
2023-11-27T09:59:13.290Z,100557.16
2023-11-27T10:02:35.698Z,100539.44
2023-11-27T10:05:58.983Z,100543.81
2023-11-27T10:09:22.083Z,100536.41
2023-11-27T10:12:47.438Z,100534.41
2023-11-27T10:16:10.453Z,100533.00
2023-11-27T10:19:32.109Z,100528.38
2023-11-27T10:22:55.316Z,100521.03
2023-11-27T10:26:22.050Z,100512.22
2023-11-27T10:29:44.846Z,100509.38
2023-11-27T10:33:07.128Z,100507.47
2023-11-27T10:36:28.818Z,100502.69
2023-11-27T10:39:51.426Z,100492.00
2023-11-27T10:43:13.173Z,100490.81
2023-11-27T10:46:36.667Z,100486.97
2023-11-27T10:50:00.253Z,100489.31
2023-11-27T10:53:23.812Z,100486.59
2023-11-27T10:56:47.577Z,100490.59
2023-11-27T11:00:10.424Z,100476.16
2023-11-27T11:03:34.674Z,100469.81
2023-11-27T11:06:59.597Z,100477.09
2023-11-27T11:10:27.428Z,100468.13
2023-11-27T11:13:50.037Z,100463.16
2023-11-27T11:17:20.885Z,100460.03
2023-11-27T11:21:06.849Z,100453.69
2023-11-27T11:24:39.096Z,100449.53
2023-11-27T11:28:07.752Z,100438.28
2023-11-27T11:31:39.638Z,100437.22
2023-11-27T11:35:03.766Z,100440.22
2023-11-27T11:38:27.829Z,100425.53
2023-11-27T11:41:53.313Z,100419.72
2023-11-27T11:45:26.478Z,100409.50
2023-11-27T11:48:55.164Z,100407.94
2023-11-27T11:52:20.612Z,100400.59
2023-11-27T11:55:45.189Z,100400.06
2023-11-27T11:59:15.607Z,100388.41
2023-11-27T12:02:37.808Z,100384.75
2023-11-27T12:06:03.807Z,100390.84
2023-11-27T12:09:25.372Z,100379.41
2023-11-27T12:12:53.565Z,100366.78
2023-11-27T12:16:18.223Z,100373.56
2023-11-27T12:19:40.232Z,100374.50
2023-11-27T12:23:01.871Z,100369.00
2023-11-27T12:26:25.016Z,100369.06
2023-11-27T12:29:50.907Z,100355.25
2023-11-27T12:33:16.281Z,100361.19
2023-11-27T12:36:39.197Z,100351.38
2023-11-27T12:40:00.792Z,100347.47
2023-11-27T12:43:22.122Z,100339.59
2023-11-27T12:46:51.278Z,100331.47
2023-11-27T12:50:24.108Z,100335.69
2023-11-27T12:53:50.479Z,100322.97
2023-11-27T12:57:12.798Z,100323.09
2023-11-27T13:00:34.595Z,100321.63
2023-11-27T13:03:57.501Z,100310.78
2023-11-27T13:07:20.697Z,100317.59
2023-11-27T13:10:44.516Z,100308.50
2023-11-27T13:14:09.208Z,100305.88
2023-11-27T13:17:36.781Z,100297.06
2023-11-27T13:21:00.958Z,100291.81
2023-11-27T13:24:27.744Z,100297.66
2023-11-27T13:27:50.176Z,100285.03
2023-11-27T13:31:13.902Z,100288.78
2023-11-27T13:34:35.461Z,100292.69
2023-11-27T13:38:01.564Z,100291.66
2023-11-27T13:41:23.902Z,100289.59
2023-11-27T13:44:46.919Z,100284.03
2023-11-27T13:48:15.111Z,100283.09
2023-11-27T13:51:36.926Z,100279.59
2023-11-27T13:55:01.695Z,100273.69
2023-11-27T13:58:27.818Z,100274.78
2023-11-27T14:01:55.803Z,100276.22
2023-11-27T14:05:21.843Z,100271.06
2023-11-27T14:08:52.383Z,100259.47
2023-11-27T14:12:15.443Z,100261.16
2023-11-27T14:15:42.581Z,100258.25
2023-11-27T14:19:21.626Z,100257.47
2023-11-27T14:22:58.733Z,100242.34
2023-11-27T14:26:35.557Z,100248.28
2023-11-27T14:29:58.618Z,100248.88
2023-11-27T14:33:21.203Z,100249.31
2023-11-27T14:36:45.267Z,100245.31
2023-11-27T14:40:20.762Z,100235.50
2023-11-27T14:43:43.929Z,100231.69
2023-11-27T14:47:11.010Z,100232.75
2023-11-27T14:50:33.691Z,100224.75
2023-11-27T14:53:57.268Z,100216.00
2023-11-27T14:57:19.851Z,100214.38
2023-11-27T15:00:44.974Z,100208.38
2023-11-27T15:04:11.445Z,100204.91
2023-11-27T15:07:32.853Z,100205.00
2023-11-27T15:10:54.762Z,100196.19
2023-11-27T15:14:20.008Z,100189.34
2023-11-27T15:17:42.391Z,100186.78
2023-11-27T15:21:05.463Z,100179.84
2023-11-27T15:24:30.402Z,100174.03
2023-11-27T15:27:52.313Z,100171.41
2023-11-27T15:31:17.454Z,100164.38
2023-11-27T15:34:39.439Z,100170.56
2023-11-27T15:38:04.082Z,100173.09
2023-11-27T15:41:25.734Z,100162.09
2023-11-27T15:44:46.988Z,100165.63
2023-11-27T15:48:08.218Z,100152.63
2023-11-27T15:51:29.465Z,100151.44
2023-11-27T15:54:52.368Z,100155.25
2023-11-27T15:58:14.294Z,100147.19
2023-11-27T16:01:36.164Z,100154.31
2023-11-27T16:04:58.675Z,100140.50
2023-11-27T16:08:20.102Z,100140.50
2023-11-27T16:11:43.611Z,100133.50
2023-11-27T16:15:05.749Z,100127.75
2023-11-27T16:18:31.227Z,100121.84
2023-11-27T16:21:53.023Z,100116.50
2023-11-27T16:25:15.545Z,100118.44
2023-11-27T16:28:38.554Z,100105.66
2023-11-27T16:32:00.576Z,100095.59
2023-11-27T16:35:23.406Z,100085.22
2023-11-27T16:38:45.501Z,100078.84
2023-11-27T16:42:07.419Z,100076.34
2023-11-27T16:45:30.313Z,100073.28
2023-11-27T16:48:51.685Z,100062.13
2023-11-27T16:52:13.326Z,100066.66
2023-11-27T16:55:36.906Z,100062.00
2023-11-27T16:58:58.564Z,100069.47
2023-11-27T17:02:23.165Z,100061.34
2023-11-27T17:05:44.892Z,100061.34
2023-11-27T17:09:08.824Z,100060.75
2023-11-27T17:12:30.282Z,100056.00
2023-11-27T17:15:51.784Z,100057.78
2023-11-27T17:19:17.125Z,100053.31
2023-11-27T17:22:45.907Z,100048.28
2023-11-27T17:26:13.900Z,100046.41
2023-11-27T17:29:35.721Z,100040.28
2023-11-27T17:32:59.153Z,100032.16
2023-11-27T17:36:22.154Z,100028.41
2023-11-27T17:39:43.481Z,100029.94
2023-11-27T17:43:06.113Z,100021.41
2023-11-27T17:46:29.528Z,100013.69
2023-11-27T17:49:51.832Z,100016.59
2023-11-27T17:53:14.832Z,100016.09
2023-11-27T17:56:40.492Z,100007.69
2023-11-27T18:00:07.790Z,100009.13
2023-11-27T18:03:34.492Z,100004.06
2023-11-27T18:06:55.688Z,99992.88
2023-11-27T18:10:19.013Z,99994.56
2023-11-27T18:13:42.016Z,99991.81
2023-11-27T18:17:05.005Z,99985.69
2023-11-27T18:20:26.792Z,99989.06
2023-11-27T18:23:48.599Z,99979.69
2023-11-27T18:27:11.456Z,99976.50
2023-11-27T18:30:33.321Z,99981.38
2023-11-27T18:33:54.925Z,99990.00
2023-11-27T18:37:17.362Z,99988.13
2023-11-27T18:40:38.678Z,99986.44
2023-11-27T18:44:01.723Z,99981.38
2023-11-27T18:47:23.283Z,99981.38
2023-11-27T18:50:48.133Z,99980.44
2023-11-27T18:54:09.583Z,99973.50
2023-11-27T18:57:31.074Z,99976.56
2023-11-27T19:00:54.171Z,99967.69
2023-11-27T19:04:17.305Z,99969.28
2023-11-27T19:07:38.699Z,99967.50
2023-11-27T19:11:02.546Z,99970.50
2023-11-27T19:14:23.829Z,99964.31
2023-11-27T19:17:47.198Z,99964.94
2023-11-27T19:21:09.477Z,99953.16
2023-11-27T19:24:32.870Z,99957.19
2023-11-27T19:27:54.368Z,99957.19
2023-11-27T19:31:16.111Z,99957.06
2023-11-27T19:34:39.297Z,99956.91
2023-11-27T19:38:01.195Z,99953.34
2023-11-27T19:41:23.605Z,99936.41
2023-11-27T19:44:47.151Z,99939.66
2023-11-27T19:48:09.149Z,99927.59
2023-11-27T19:51:32.243Z,99931.16
2023-11-27T19:54:53.479Z,99939.41
2023-11-27T19:58:14.969Z,99936.34
2023-11-27T20:01:36.804Z,99920.19
2023-11-27T20:04:58.641Z,99913.44
2023-11-27T20:08:21.222Z,99910.34
2023-11-27T20:11:42.485Z,99903.41
2023-11-27T20:15:04.016Z,99901.00
2023-11-27T20:18:28.947Z,99888.63
2023-11-27T20:21:51.405Z,99886.56
2023-11-27T20:25:14.255Z,99872.13
2023-11-27T20:28:36.059Z,99866.50
2023-11-27T20:31:57.707Z,99860.31
2023-11-27T20:35:19.462Z,99862.38
2023-11-27T20:38:41.173Z,99855.66
2023-11-27T20:42:04.067Z,99847.09
2023-11-27T20:45:26.212Z,99861.16
2023-11-27T20:48:50.676Z,99851.78
2023-11-27T20:52:12.695Z,99844.88
2023-11-27T20:55:34.256Z,99845.06
2023-11-27T20:58:56.871Z,99845.50
2023-11-27T21:02:18.917Z,99840.00
2023-11-27T21:05:40.542Z,99845.06
2023-11-27T21:09:01.940Z,99838.78
2023-11-27T21:12:23.177Z,99845.72
2023-11-27T21:15:47.791Z,99842.53
2023-11-27T21:19:09.573Z,99846.19
2023-11-27T21:22:31.279Z,99842.88
2023-11-27T21:25:53.156Z,99843.75
2023-11-27T21:29:14.761Z,99844.50
2023-11-27T21:32:37.859Z,99839.88
2023-11-27T21:35:59.950Z,99830.22
2023-11-27T21:39:22.498Z,99830.59
2023-11-27T21:42:45.262Z,99827.41
2023-11-27T21:46:07.692Z,99818.72
2023-11-27T21:49:30.966Z,99826.28
2023-11-27T21:52:53.265Z,99819.28
2023-11-27T21:56:15.251Z,99816.91
2023-11-27T21:59:36.629Z,99817.22
2023-11-27T22:02:58.141Z,99806.16
2023-11-27T22:06:22.245Z,99812.03
2023-11-27T22:09:47.547Z,99811.41
2023-11-27T22:13:09.095Z,99803.81
2023-11-27T22:16:30.873Z,99798.47
2023-11-27T22:19:52.666Z,99802.25
2023-11-27T22:23:15.330Z,99794.44
2023-11-27T22:26:41.622Z,99787.88
2023-11-27T22:30:03.010Z,99795.19
2023-11-27T22:33:24.368Z,99784.53
2023-11-27T22:36:45.740Z,99787.97
2023-11-27T22:40:09.903Z,99788.16
2023-11-27T22:43:31.800Z,99792.94
2023-11-27T22:46:53.043Z,99785.91
2023-11-27T22:50:14.657Z,99784.78
2023-11-27T22:53:35.969Z,99783.84
2023-11-27T22:56:58.720Z,99784.91
2023-11-27T23:00:23.554Z,99778.16
2023-11-27T23:03:44.939Z,99783.09
2023-11-27T23:07:06.921Z,99772.53
2023-11-27T23:10:28.322Z,99775.03
2023-11-27T23:13:51.016Z,99774.84
2023-11-27T23:17:12.365Z,99770.38
2023-11-27T23:20:34.298Z,99761.50
2023-11-27T23:23:56.039Z,99756.06
2023-11-27T23:27:17.321Z,99757.81
2023-11-27T23:30:40.457Z,99752.13
2023-11-27T23:34:01.935Z,99751.19
2023-11-27T23:37:23.199Z,99745.84
2023-11-27T23:40:44.948Z,99739.84
2023-11-27T23:44:06.592Z,99741.34
2023-11-27T23:47:29.651Z,99736.94
2023-11-27T23:50:51.286Z,99738.06
2023-11-27T23:54:12.652Z,99736.31
2023-11-27T23:57:34.198Z,99729.81
